Dadeville, Missouri
Current Conditions -  °F | °C
As of 10:52 PM on Wednesday 22 Oct 2014 (Local Time) from KSGF Reporting Station
Clear Clear  
Wind Chill: 55°   Ceiling: Unl
Heat Index: 55°   Visibility: 10mi
Dew Point: 47°   Wind: 9mph
Humidity: 74%   Direction: 160°SSE
Pressure: 30.17"   Gusts: NA
Location:  37.48°N, 93.67°W
Report Text: KSGF 230352Z 16008KT 10SM CLR 13/08 A3017 RMK AO2 SLP213 T01280083
Loading
Personal Weather Stations






























Interactive Weather Map
Tropical Storm Tracking
New forecast layout! Learn more

10-Day Weather Forecast

Advertisements
Track Severe Weather on mobile